Time;durP1;ratioP1;P1;durP2;ratioP2;P2;SDS_P1;SDS_P2;PMS_P1;PMS_P2;Temp;Humidity;BMP_temperature;BMP_pressure;BME280_temperature;BME280_humidity;BME280_pressure;Samples;Min_cycle;Max_cycle;Signal;HPM_P1;HPM_P2
2022/08/21 00:00:34;;;;;;;31.23;9.20;;;;;;;;;;6179606;23;20544;-59
2022/08/21 00:03:11;;;;;;;27.33;9.13;;;;;;;;;;6178317;23;20454;-59
2022/08/21 00:05:39;;;;;;;22.77;9.38;;;;;;;;;;6179343;23;20363;-58
2022/08/21 00:08:07;;;;;;;26.25;8.55;;;;;;;;;;6179234;23;20115;-59
2022/08/21 00:10:41;;;;;;;33.38;9.27;;;;;;;;;;6179142;23;20473;-67
2022/08/21 00:13:09;;;;;;;26.90;8.55;;;;;;;;;;6179271;23;20080;-53
2022/08/21 00:15:36;;;;;;;;;;;;;;;;;;6180023;23;20037;-53
2022/08/21 00:18:10;;;;;;;27.77;6.78;;;;;;;;;;6179284;23;19917;-55
2022/08/21 00:20:37;;;;;;;;;;;;;;;;;;6179731;23;20017;-55
2022/08/21 00:23:04;;;;;;;20.35;7.28;;;;;;;;;;6178319;23;20242;-51
2022/08/21 00:25:39;;;;;;;28.38;7.55;;;;;;;;;;6178720;23;20025;-56
2022/08/21 00:28:06;;;;;;;27.60;6.97;;;;;;;;;;6179386;23;20459;-56
2022/08/21 00:30:34;;;;;;;18.27;6.82;;;;;;;;;;6152859;23;20407;-57
2022/08/21 00:33:09;;;;;;;25.55;6.93;;;;;;;;;;6178031;23;20085;-54
2022/08/21 00:35:43;;;;;;;21.52;7.13;;;;;;;;;;6177924;23;20645;-57
2022/08/21 00:38:17;;;;;;;28.08;6.68;;;;;;;;;;6178249;23;20025;-58
2022/08/21 00:40:46;;;;;;;25.10;7.82;;;;;;;;;;6178171;23;20458;-55
2022/08/21 00:43:15;;;;;;;26.05;7.68;;;;;;;;;;6178021;23;20568;-57
2022/08/21 00:45:49;;;;;;;26.13;7.93;;;;;;;;;;6178534;23;20028;-55
2022/08/21 00:48:16;;;;;;;26.27;7.35;;;;;;;;;;6178001;23;20021;-60
2022/08/21 00:50:46;;;;;;;22.48;7.38;;;;;;;;;;6178082;23;20072;-51
2022/08/21 00:53:20;;;;;;;28.13;7.68;;;;;;;;;;6178090;23;20383;-53
2022/08/21 00:55:47;;;;;;;23.83;6.78;;;;;;;;;;6177529;23;20406;-48
2022/08/21 00:58:15;;;;;;;23.73;7.05;;;;;;;;;;6177070;23;20025;-53
2022/08/21 01:00:50;;;;;;;27.52;8.00;;;;;;;;;;6177649;23;20025;-55
2022/08/21 01:03:21;;;;;;;17.75;6.53;;;;;;;;;;6178631;23;20032;-56
2022/08/21 01:05:50;;;;;;;25.15;7.18;;;;;;;;;;6177825;23;20025;-61
2022/08/21 01:08:24;;;;;;;23.40;7.82;;;;;;;;;;6178906;23;20024;-61
2022/08/21 01:10:53;;;;;;;22.63;7.68;;;;;;;;;;6178256;23;20057;-55
2022/08/21 01:13:23;;;;;;;28.00;8.50;;;;;;;;;;6178480;23;20039;-54
2022/08/21 01:15:59;;;;;;;22.90;7.50;;;;;;;;;;6179174;23;20025;-54
2022/08/21 01:18:27;;;;;;;21.73;7.47;;;;;;;;;;6177764;23;20414;-56
2022/08/21 01:21:11;;;;;;;27.80;8.07;;;;;;;;;;6178952;23;20079;-55
2022/08/21 01:23:48;;;;;;;24.05;8.65;;;;;;;;;;6178556;23;20021;-56
2022/08/21 01:26:16;;;;;;;18.25;7.00;;;;;;;;;;6177370;23;20367;-61
2022/08/21 01:28:52;;;;;;;20.38;8.48;;;;;;;;;;6177212;23;20021;-55
2022/08/21 01:31:27;;;;;;;28.08;8.98;;;;;;;;;;6178312;23;20040;-57
2022/08/21 01:34:01;;;;;;;26.00;8.35;;;;;;;;;;6177830;23;20025;-56
2022/08/21 01:36:43;;;;;;;25.50;9.07;;;;;;;;;;6177720;23;20506;-56
2022/08/21 01:39:11;;;;;;;28.00;9.10;;;;;;;;;;6176401;23;20470;-57
2022/08/21 01:41:44;;;;;;;81.15;10.95;;;;;;;;;;6178893;23;20029;-53
2022/08/21 01:44:12;;;;;;;25.98;8.98;;;;;;;;;;6177843;23;20021;-61
2022/08/21 01:46:39;;;;;;;40.50;9.13;;;;;;;;;;6176999;23;20018;-60
2022/08/21 01:49:13;;;;;;;22.67;9.05;;;;;;;;;;6177488;23;20029;-55
2022/08/21 01:51:40;;;;;;;27.23;9.07;;;;;;;;;;6178244;23;20025;-53
2022/08/21 01:54:07;;;;;;;26.52;9.00;;;;;;;;;;6177910;23;20025;-52
2022/08/21 01:56:43;;;;;;;26.00;8.10;;;;;;;;;;6177889;23;20021;-54
2022/08/21 01:59:10;;;;;;;24.10;8.43;;;;;;;;;;6178048;23;20100;-54
2022/08/21 02:01:39;;;;;;;17.90;7.53;;;;;;;;;;6178665;23;20032;-53
2022/08/21 02:04:13;;;;;;;32.70;8.75;;;;;;;;;;6180020;23;20029;-62
2022/08/21 02:06:41;;;;;;;19.00;8.32;;;;;;;;;;6178899;23;20091;-50
2022/08/21 02:09:09;;;;;;;27.52;9.57;;;;;;;;;;6177218;23;20025;-50
2022/08/21 02:11:43;;;;;;;32.13;9.98;;;;;;;;;;6179482;23;20028;-51
2022/08/21 02:14:11;;;;;;;27.85;9.68;;;;;;;;;;6179128;23;20028;-53
2022/08/21 02:16:39;;;;;;;25.73;9.55;;;;;;;;;;6180812;23;20025;-53
2022/08/21 02:19:15;;;;;;;36.40;9.32;;;;;;;;;;6178910;23;20704;-55
2022/08/21 02:21:44;;;;;;;28.38;10.00;;;;;;;;;;6180781;23;20048;-50
2022/08/21 02:24:11;;;;;;;24.35;9.90;;;;;;;;;;6179140;23;20075;-52
2022/08/21 02:26:45;;;;;;;27.13;9.65;;;;;;;;;;6155693;23;20032;-60
2022/08/21 02:29:12;;;;;;;23.25;9.98;;;;;;;;;;6179377;23;20028;-61
2022/08/21 02:31:39;;;;;;;25.15;8.95;;;;;;;;;;6180263;23;20024;-62
2022/08/21 02:34:19;;;;;;;28.33;9.73;;;;;;;;;;6178153;23;20032;-61
2022/08/21 02:36:53;;;;;;;21.38;9.93;;;;;;;;;;6179596;23;20052;-61
2022/08/21 02:39:26;;;;;;;30.85;9.95;;;;;;;;;;6179136;23;20087;-60
2022/08/21 02:41:54;;;;;;;25.67;9.82;;;;;;;;;;6180614;23;20068;-62
2022/08/21 02:44:21;;;;;;;29.15;10.07;;;;;;;;;;6179828;23;20087;-60
2022/08/21 02:47:00;;;;;;;21.13;9.63;;;;;;;;;;6179627;23;20021;-60
2022/08/21 02:49:27;;;;;;;24.20;9.95;;;;;;;;;;6180497;23;20032;-61
2022/08/21 02:52:02;;;;;;;23.23;9.25;;;;;;;;;;6180504;23;20528;-60
2022/08/21 02:54:29;;;;;;;29.02;10.43;;;;;;;;;;6179716;23;20482;-61
2022/08/21 02:56:56;;;;;;;22.50;9.45;;;;;;;;;;6152706;23;20091;-60
2022/08/21 02:59:31;;;;;;;26.35;10.55;;;;;;;;;;6179701;23;20071;-60
2022/08/21 03:01:59;;;;;;;31.10;10.05;;;;;;;;;;6180205;23;20032;-57
2022/08/21 03:04:26;;;;;;;29.80;10.45;;;;;;;;;;6180002;23;20121;-56
2022/08/21 03:07:00;;;;;;;23.02;9.27;;;;;;;;;;6179065;23;20021;-51
2022/08/21 03:09:27;;;;;;;25.85;10.02;;;;;;;;;;6179566;23;20189;-55
2022/08/21 03:11:54;;;;;;;30.63;9.68;;;;;;;;;;6178525;23;20024;-51
2022/08/21 03:14:28;;;;;;;26.00;9.82;;;;;;;;;;6178723;23;20029;-55
2022/08/21 03:16:55;;;;;;;30.00;10.82;;;;;;;;;;6178814;23;20021;-52
2022/08/21 03:19:22;;;;;;;17.88;9.52;;;;;;;;;;6179863;23;20025;-61
2022/08/21 03:21:56;;;;;;;27.55;10.27;;;;;;;;;;6179533;23;20028;-53
2022/08/21 03:24:23;;;;;;;24.20;10.50;;;;;;;;;;6178463;23;20816;-56
2022/08/21 03:26:50;;;;;;;21.20;9.20;;;;;;;;;;6179192;23;20025;-56
2022/08/21 03:29:24;;;;;;;23.38;10.43;;;;;;;;;;6153458;23;20033;-55
2022/08/21 03:31:53;;;;;;;27.52;9.77;;;;;;;;;;6179649;23;20021;-54
2022/08/21 03:34:21;;;;;;;26.40;11.65;;;;;;;;;;6178848;23;20494;-56
2022/08/21 03:37:07;;;;;;;36.13;11.52;;;;;;;;;;6179126;23;20017;-56
2022/08/21 03:39:34;;;;;;;25.92;10.70;;;;;;;;;;6177595;23;20080;-52
2022/08/21 03:42:09;;;;;;;31.02;10.88;;;;;;;;;;6178292;23;20084;-62
2022/08/21 03:44:36;;;;;;;23.17;9.93;;;;;;;;;;6177881;23;20048;-63
2022/08/21 03:47:03;;;;;;;35.78;11.55;;;;;;;;;;6178711;23;20582;-61
2022/08/21 03:49:38;;;;;;;26.80;11.20;;;;;;;;;;6178100;23;20021;-62
2022/08/21 03:52:05;;;;;;;24.67;10.23;;;;;;;;;;6179258;23;20483;-62
2022/08/21 03:54:33;;;;;;;29.50;11.50;;;;;;;;;;6178233;23;20048;-62
2022/08/21 03:57:08;;;;;;;24.73;9.25;;;;;;;;;;6177725;23;20029;-62
2022/08/21 03:59:36;;;;;;;22.17;10.13;;;;;;;;;;6179286;23;20025;-61
2022/08/21 04:02:03;;;;;;;;;;;;;;;;;;6178907;23;20474;-70
2022/08/21 04:04:37;;;;;;;24.58;11.10;;;;;;;;;;6178606;23;20313;-69
2022/08/21 04:07:04;;;;;;;28.80;12.27;;;;;;;;;;6178389;23;20059;-69
2022/08/21 04:09:31;;;;;;;18.23;10.65;;;;;;;;;;6178557;23;20031;-69
2022/08/21 04:12:06;;;;;;;23.15;9.75;;;;;;;;;;6177579;23;20017;-68
2022/08/21 04:14:33;;;;;;;17.73;8.18;;;;;;;;;;6178511;23;20075;-69
2022/08/21 04:17:00;;;;;;;19.38;8.68;;;;;;;;;;6179858;23;20084;-57
2022/08/21 04:19:34;;;;;;;26.02;10.65;;;;;;;;;;6177932;23;20079;-69
2022/08/21 04:22:01;;;;;;;21.17;11.35;;;;;;;;;;6178040;23;20025;-58
2022/08/21 04:24:28;;;;;;;21.23;7.60;;;;;;;;;;6178827;23;20025;-57
2022/08/21 04:27:02;;;;;;;22.00;8.55;;;;;;;;;;6178676;23;20021;-54
2022/08/21 04:29:29;;;;;;;20.35;7.50;;;;;;;;;;6178685;23;20572;-58
2022/08/21 04:31:56;;;;;;;15.80;7.60;;;;;;;;;;6178366;23;20336;-53
2022/08/21 04:34:30;;;;;;;17.38;6.30;;;;;;;;;;6178258;23;20044;-57
2022/08/21 04:37:04;;;;;;;14.65;7.03;;;;;;;;;;6178103;23;20025;-53
2022/08/21 04:39:38;;;;;;;16.05;7.45;;;;;;;;;;6177076;23;20067;-69
2022/08/21 04:42:06;;;;;;;16.88;7.22;;;;;;;;;;6178306;23;20060;-69
2022/08/21 04:44:33;;;;;;;18.98;6.55;;;;;;;;;;6177522;23;20052;-69
2022/08/21 04:47:08;;;;;;;16.92;6.55;;;;;;;;;;6178640;23;20048;-69
2022/08/21 04:49:35;;;;;;;15.13;6.13;;;;;;;;;;6178251;23;20037;-69
2022/08/21 04:52:02;;;;;;;12.57;6.80;;;;;;;;;;6178500;23;20028;-69
2022/08/21 04:54:36;;;;;;;15.00;6.78;;;;;;;;;;6178376;23;20025;-62
2022/08/21 04:57:07;;;;;;;19.40;6.53;;;;;;;;;;6178469;23;20052;-54
2022/08/21 04:59:36;;;;;;;10.38;6.13;;;;;;;;;;6176909;23;20530;-55
2022/08/21 05:02:12;;;;;;;24.40;8.10;;;;;;;;;;6177125;23;20111;-57
2022/08/21 05:04:42;;;;;;;18.60;7.10;;;;;;;;;;6177706;23;20026;-58
2022/08/21 05:07:12;;;;;;;18.80;6.90;;;;;;;;;;6177837;23;20119;-57
2022/08/21 05:10:08;;;;;;;13.77;6.80;;;;;;;;;;6178568;23;20510;-53
2022/08/21 05:12:35;;;;;;;17.98;7.20;;;;;;;;;;6177449;23;20025;-56
2022/08/21 05:15:11;;;;;;;16.80;7.32;;;;;;;;;;6179207;23;20091;-61
2022/08/21 05:17:40;;;;;;;15.02;7.82;;;;;;;;;;6178824;23;20028;-56
2022/08/21 05:20:08;;;;;;;22.90;8.48;;;;;;;;;;6178620;23;20036;-55
2022/08/21 05:22:42;;;;;;;27.15;8.45;;;;;;;;;;6178475;23;20028;-55
2022/08/21 05:25:09;;;;;;;19.40;7.70;;;;;;;;;;6178470;23;20032;-54
2022/08/21 05:27:37;;;;;;;;;;;;;;;;;;6179532;23;20481;-55
2022/08/21 05:30:11;;;;;;;20.33;8.18;;;;;;;;;;6178100;23;19920;-55
2022/08/21 05:32:38;;;;;;;12.57;6.75;;;;;;;;;;6178906;23;20490;-54
2022/08/21 05:35:06;;;;;;;19.38;7.75;;;;;;;;;;6179932;23;20021;-61
2022/08/21 05:37:46;;;;;;;17.25;8.45;;;;;;;;;;6151235;23;20084;-60
2022/08/21 05:40:14;;;;;;;19.27;7.88;;;;;;;;;;6150317;23;20087;-60
2022/08/21 05:42:53;;;;;;;17.90;7.95;;;;;;;;;;6149217;23;20479;-60
2022/08/21 05:45:26;;;;;;;23.50;8.88;;;;;;;;;;6150152;23;20108;-61
2022/08/21 05:48:20;;;;;;;16.83;8.13;;;;;;;;;;6150561;23;20045;-60
2022/08/21 05:50:49;;;;;;;18.88;7.60;;;;;;;;;;6150195;23;20026;-60
2022/08/21 05:53:23;;;;;;;17.50;8.02;;;;;;;;;;6150905;23;20478;-56
2022/08/21 05:55:51;;;;;;;28.73;8.73;;;;;;;;;;6149674;23;20468;-52
2022/08/21 05:58:20;;;;;;;18.15;8.00;;;;;;;;;;6148812;23;20340;-54
2022/08/21 06:00:54;;;;;;;18.05;8.43;;;;;;;;;;6150139;23;20452;-49
2022/08/21 06:03:25;;;;;;;30.55;9.02;;;;;;;;;;6150008;23;20021;-53
2022/08/21 06:05:52;;;;;;;20.88;8.10;;;;;;;;;;6150099;23;20033;-48
2022/08/21 06:08:27;;;;;;;19.40;8.20;;;;;;;;;;6150466;23;20018;-53
2022/08/21 06:10:55;;;;;;;17.40;6.93;;;;;;;;;;6150957;23;20025;-60
2022/08/21 06:13:23;;;;;;;23.35;7.80;;;;;;;;;;6149995;23;20021;-69
2022/08/21 06:16:09;;;;;;;20.63;7.18;;;;;;;;;;6148360;23;20030;-70
2022/08/21 06:18:36;;;;;;;19.05;7.57;;;;;;;;;;6149565;23;20743;-70
2022/08/21 06:21:11;;;;;;;17.05;6.93;;;;;;;;;;6150017;23;20076;-70
2022/08/21 06:23:38;;;;;;;12.90;6.43;;;;;;;;;;6149573;23;20053;-70
2022/08/21 06:26:06;;;;;;;13.77;6.13;;;;;;;;;;6150382;23;20033;-68
2022/08/21 06:28:41;;;;;;;14.90;6.03;;;;;;;;;;6148363;23;20057;-69
2022/08/21 06:31:16;;;;;;;17.45;5.30;;;;;;;;;;6148969;23;20025;-52
2022/08/21 06:33:50;;;;;;;16.63;5.25;;;;;;;;;;6150268;23;20391;-67
2022/08/21 06:36:30;;;;;;;12.43;4.68;;;;;;;;;;6161535;23;20491;-67
2022/08/21 06:39:06;;;;;;;11.15;4.63;;;;;;;;;;6178455;23;20025;-67
2022/08/21 06:41:52;;;;;;;15.38;4.45;;;;;;;;;;6181485;23;20025;-67
2022/08/21 06:44:27;;;;;;;11.10;4.00;;;;;;;;;;6179893;23;20458;-67
2022/08/21 06:46:54;;;;;;;11.05;4.10;;;;;;;;;;6180011;23;20021;-67
2022/08/21 06:49:21;;;;;;;13.23;3.95;;;;;;;;;;6178774;23;20021;-67
2022/08/21 06:51:55;;;;;;;10.95;3.42;;;;;;;;;;6180013;23;20025;-55
2022/08/21 06:54:22;;;;;;;12.27;3.10;;;;;;;;;;6180290;23;20101;-57
2022/08/21 06:56:49;;;;;;;9.43;3.10;;;;;;;;;;6177986;23;20119;-58
2022/08/21 06:59:23;;;;;;;8.55;3.17;;;;;;;;;;6179035;23;20075;-59
2022/08/21 07:01:50;;;;;;;12.23;2.65;;;;;;;;;;6179459;23;20029;-58
2022/08/21 07:04:18;;;;;;;5.95;2.53;;;;;;;;;;6178626;23;20021;-58
2022/08/21 07:06:52;;;;;;;7.03;2.60;;;;;;;;;;6180091;23;20025;-58
2022/08/21 07:09:19;;;;;;;7.85;2.55;;;;;;;;;;6179992;23;20025;-48
2022/08/21 07:11:52;;;;;;;13.38;3.38;;;;;;;;;;6180375;23;20025;-48
2022/08/21 07:14:26;;;;;;;10.68;3.05;;;;;;;;;;6177145;23;20490;-48
2022/08/21 07:16:54;;;;;;;11.80;2.35;;;;;;;;;;6180659;23;20083;-51
2022/08/21 07:19:21;;;;;;;;;;;;;;;;;;6180525;23;20052;-48
2022/08/21 07:21:57;;;;;;;7.18;2.50;;;;;;;;;;6180465;23;19916;-50
2022/08/21 07:24:24;;;;;;;8.90;2.33;;;;;;;;;;6180468;23;20056;-52
2022/08/21 07:26:52;;;;;;;8.60;2.50;;;;;;;;;;6180274;23;20057;-58
2022/08/21 07:29:26;;;;;;;7.90;2.60;;;;;;;;;;6179603;23;20387;-55
2022/08/21 07:31:53;;;;;;;7.22;2.60;;;;;;;;;;6155731;23;20044;-66
2022/08/21 07:34:20;;;;;;;8.13;2.17;;;;;;;;;;6179678;23;20036;-70
2022/08/21 07:37:00;;;;;;;11.38;2.83;;;;;;;;;;6180729;23;20024;-66
2022/08/21 07:39:36;;;;;;;9.65;2.53;;;;;;;;;;6180073;23;20027;-66
2022/08/21 07:42:10;;;;;;;15.30;3.25;;;;;;;;;;6180317;23;20027;-66
2022/08/21 07:44:37;;;;;;;12.70;2.40;;;;;;;;;;6180382;23;20021;-66
2022/08/21 07:47:04;;;;;;;6.70;2.40;;;;;;;;;;6181370;23;20025;-51
2022/08/21 07:49:38;;;;;;;12.43;2.22;;;;;;;;;;6179237;23;20083;-53
2022/08/21 07:52:05;;;;;;;9.55;2.35;;;;;;;;;;6179309;23;20021;-55
2022/08/21 07:54:32;;;;;;;8.95;2.25;;;;;;;;;;6179162;23;20036;-54
2022/08/21 07:57:07;;;;;;;7.57;2.38;;;;;;;;;;6178889;23;20021;-55
2022/08/21 07:59:34;;;;;;;14.73;2.65;;;;;;;;;;6180807;23;20032;-53
2022/08/21 08:02:01;;;;;;;13.05;2.42;;;;;;;;;;6180800;23;20021;-49
2022/08/21 08:04:39;;;;;;;10.60;3.05;;;;;;;;;;6179827;23;20035;-50
2022/08/21 08:07:17;;;;;;;10.18;2.28;;;;;;;;;;6179246;23;20017;-58
2022/08/21 08:09:51;;;;;;;11.98;2.60;;;;;;;;;;6178118;23;20020;-66
2022/08/21 08:12:18;;;;;;;;;;;;;;;;;;6179381;23;20025;-66
2022/08/21 08:14:45;;;;;;;8.88;2.40;;;;;;;;;;6178674;23;20380;-66
2022/08/21 08:17:25;;;;;;;14.30;2.40;;;;;;;;;;6179743;23;20052;-66
2022/08/21 08:19:53;;;;;;;10.35;2.15;;;;;;;;;;6173579;23;20403;-66
2022/08/21 08:22:34;;;;;;;8.73;2.17;;;;;;;;;;6176004;23;20025;-66
2022/08/21 08:25:02;;;;;;;8.70;2.67;;;;;;;;;;6149083;23;20064;-59
2022/08/21 08:27:36;;;;;;;11.70;2.47;;;;;;;;;;6174493;23;20539;-55
2022/08/21 08:30:04;;;;;;;8.88;2.78;;;;;;;;;;6171715;23;20048;-57
2022/08/21 08:32:31;;;;;;;9.77;2.50;;;;;;;;;;6175660;23;20048;-52
2022/08/21 08:35:06;;;;;;;5.65;2.47;;;;;;;;;;6149119;23;20409;-53
2022/08/21 08:37:40;;;;;;;8.07;2.50;;;;;;;;;;6175560;23;20514;-54
2022/08/21 08:40:23;;;;;;;8.50;2.38;;;;;;;;;;6172983;23;20409;-53
2022/08/21 08:42:50;;;;;;;11.02;2.65;;;;;;;;;;6176198;23;20027;-51
2022/08/21 08:45:26;;;;;;;6.40;2.42;;;;;;;;;;6174808;23;20087;-55
2022/08/21 08:47:58;;;;;;;10.05;2.28;;;;;;;;;;6173807;23;20025;-59
2022/08/21 08:50:40;;;;;;;11.07;2.88;;;;;;;;;;6174823;23;20028;-57
2022/08/21 08:53:11;;;;;;;11.90;2.58;;;;;;;;;;6174582;23;20057;-58
2022/08/21 08:55:45;;;;;;;8.63;2.67;;;;;;;;;;6175432;23;20059;-59
2022/08/21 08:58:17;;;;;;;12.40;2.70;;;;;;;;;;6175225;23;20360;-59
2022/08/21 09:00:47;;;;;;;9.55;2.78;;;;;;;;;;6176356;23;20076;-59
2022/08/21 09:03:26;;;;;;;11.32;2.78;;;;;;;;;;6177600;23;20425;-52
2022/08/21 09:06:00;;;;;;;10.68;2.80;;;;;;;;;;6177394;23;20088;-66
2022/08/21 09:08:49;;;;;;;6.65;2.50;;;;;;;;;;6179704;23;20048;-66
2022/08/21 09:11:31;;;;;;;8.43;2.60;;;;;;;;;;6180759;23;20025;-67
2022/08/21 09:14:17;;;;;;;11.20;2.65;;;;;;;;;;6157031;23;20084;-66
2022/08/21 09:16:50;;;;;;;4.93;2.05;;;;;;;;;;6181385;23;20029;-65
2022/08/21 09:19:39;;;;;;;9.90;2.80;;;;;;;;;;6179945;23;20451;-66
2022/08/21 09:22:17;;;;;;;7.97;2.10;;;;;;;;;;6180723;23;20087;-67
2022/08/21 09:24:54;;;;;;;5.88;2.22;;;;;;;;;;6181460;23;20081;-52
2022/08/21 09:27:22;;;;;;;6.50;2.08;;;;;;;;;;6181747;23;20017;-49
2022/08/21 09:29:51;;;;;;;4.75;1.90;;;;;;;;;;6181658;23;20032;-52
2022/08/21 09:32:27;;;;;;;5.85;1.90;;;;;;;;;;6180519;23;20044;-50
2022/08/21 09:35:20;;;;;;;8.60;1.80;;;;;;;;;;6178397;23;20073;-55
2022/08/21 09:38:12;;;;;;;6.72;2.00;;;;;;;;;;6180055;23;20083;-49
2022/08/21 09:40:41;;;;;;;5.13;1.73;;;;;;;;;;6176251;23;20024;-66
2022/08/21 09:43:21;;;;;;;9.35;2.55;;;;;;;;;;6175445;23;20021;-54
2022/08/21 09:45:50;;;;;;;9.18;2.05;;;;;;;;;;6180382;23;20095;-50
2022/08/21 09:48:25;;;;;;;8.55;2.28;;;;;;;;;;6177732;23;20028;-49
2022/08/21 09:51:12;;;;;;;9.90;2.25;;;;;;;;;;6177131;23;20085;-51
2022/08/21 09:53:49;;;;;;;9.23;2.42;;;;;;;;;;6179983;23;20021;-47
2022/08/21 09:59:45;;;;;;;5.05;2.13;;;;;;;;;;6176575;23;20020;-54
2022/08/21 10:02:28;;;;;;;6.53;2.10;;;;;;;;;;6149143;23;20029;-52
2022/08/21 10:05:02;;;;;;;6.15;2.10;;;;;;;;;;6179873;23;20024;-50
2022/08/21 10:07:31;;;;;;;7.80;2.10;;;;;;;;;;6179335;23;20021;-52
2022/08/21 10:09:59;;;;;;;7.35;2.30;;;;;;;;;;6178426;23;20071;-52
2022/08/21 10:12:45;;;;;;;8.60;2.17;;;;;;;;;;6179895;23;20358;-52
2022/08/21 10:15:13;;;;;;;5.30;2.20;;;;;;;;;;6176344;23;20036;-50
2022/08/21 10:17:56;;;;;;;9.32;2.80;;;;;;;;;;6180881;23;20021;-58
2022/08/21 10:20:25;;;;;;;5.97;2.17;;;;;;;;;;6178954;23;20115;-67
2022/08/21 10:23:09;;;;;;;8.20;2.03;;;;;;;;;;6178463;23;20025;-52
2022/08/21 10:25:36;;;;;;;8.05;2.38;;;;;;;;;;6179471;23;20032;-48
2022/08/21 10:28:55;;;;;;;5.68;1.80;;;;;;;;;;6178751;23;20090;-50
2022/08/21 10:31:40;;;;;;;6.40;2.15;;;;;;;;;;6180159;23;20025;-49
2022/08/21 10:34:21;;;;;;;5.80;2.05;;;;;;;;;;6179796;23;20024;-50
2022/08/21 10:37:02;;;;;;;5.40;1.80;;;;;;;;;;6148521;23;20033;-53
2022/08/21 10:40:04;;;;;;;5.55;2.20;;;;;;;;;;6150361;23;20029;-56
2022/08/21 10:42:34;;;;;;;6.68;1.80;;;;;;;;;;6150249;23;20084;-67
2022/08/21 10:45:14;;;;;;;13.75;2.30;;;;;;;;;;6149807;23;20536;-66
2022/08/21 10:47:48;;;;;;;3.38;1.60;;;;;;;;;;6149732;23;20022;-67
2022/08/21 10:50:27;;;;;;;8.45;1.90;;;;;;;;;;6150664;23;20100;-66
2022/08/21 10:53:16;;;;;;;5.75;2.08;;;;;;;;;;6149747;23;20471;-66
2022/08/21 10:55:59;;;;;;;4.47;1.67;;;;;;;;;;6149969;23;20084;-61
2022/08/21 10:58:30;;;;;;;5.80;1.83;;;;;;;;;;6149450;23;20022;-47
2022/08/21 11:01:14;;;;;;;6.93;2.13;;;;;;;;;;6147959;23;20072;-51
2022/08/21 11:03:43;;;;;;;6.25;2.00;;;;;;;;;;6149667;23;20035;-52
2022/08/21 11:06:19;;;;;;;;;;;;;;;;;;6150584;23;20068;-50
2022/08/21 11:08:54;;;;;;;4.60;2.10;;;;;;;;;;6148479;23;20337;-50
2022/08/21 11:11:31;;;;;;;6.40;2.15;;;;;;;;;;6147921;23;20029;-55
2022/08/21 11:14:13;;;;;;;7.30;2.17;;;;;;;;;;6148105;23;20017;-56
2022/08/21 11:17:11;;;;;;;4.50;1.75;;;;;;;;;;6149658;23;20089;-60
2022/08/21 11:19:57;;;;;;;7.82;2.50;;;;;;;;;;6150188;23;20488;-56
2022/08/21 11:22:35;;;;;;;7.00;2.05;;;;;;;;;;6148095;23;20033;-55
2022/08/21 11:25:23;;;;;;;6.65;2.00;;;;;;;;;;6149112;23;20025;-53
2022/08/21 11:28:09;;;;;;;8.20;2.03;;;;;;;;;;6148929;23;20059;-52
2022/08/21 11:30:47;;;;;;;6.00;2.00;;;;;;;;;;6147666;23;20199;-52
2022/08/21 11:33:35;;;;;;;10.30;2.10;;;;;;;;;;6148472;23;20526;-53
2022/08/21 11:36:18;;;;;;;6.38;2.00;;;;;;;;;;6143469;23;20053;-55
2022/08/21 11:39:04;;;;;;;8.35;2.40;;;;;;;;;;6150016;23;20053;-51
2022/08/21 11:41:38;;;;;;;6.85;2.20;;;;;;;;;;6150444;23;20080;-53
2022/08/21 11:44:18;;;;;;;6.22;1.92;;;;;;;;;;6148835;23;20026;-49
2022/08/21 11:46:50;;;;;;;6.60;2.13;;;;;;;;;;6149343;23;20026;-53
2022/08/21 11:49:31;;;;;;;10.00;2.53;;;;;;;;;;6150275;23;20025;-49
2022/08/21 11:51:58;;;;;;;4.35;1.90;;;;;;;;;;6149542;23;20026;-51
2022/08/21 11:55:06;;;;;;;6.40;2.40;;;;;;;;;;6149604;23;20022;-53
2022/08/21 11:57:55;;;;;;;8.30;2.25;;;;;;;;;;6144604;23;20049;-59
2022/08/21 12:00:52;;;;;;;6.57;1.88;;;;;;;;;;6127511;23;20036;-59
2022/08/21 12:03:30;;;;;;;5.70;1.90;;;;;;;;;;6134539;23;20076;-59
2022/08/21 12:06:09;;;;;;;6.68;2.33;;;;;;;;;;6148399;23;20026;-59
2022/08/21 12:08:36;;;;;;;4.75;2.20;;;;;;;;;;6141956;23;20029;-59
2022/08/21 12:11:30;;;;;;;4.25;1.75;;;;;;;;;;6143456;23;20028;-59
2022/08/21 12:14:19;;;;;;;9.43;2.38;;;;;;;;;;6147954;23;20033;-55
2022/08/21 12:17:23;;;;;;;4.85;2.08;;;;;;;;;;6149179;23;20626;-52
2022/08/21 12:20:29;;;;;;;9.75;2.42;;;;;;;;;;6146230;23;20110;-51
2022/08/21 12:23:31;;;;;;;10.32;2.50;;;;;;;;;;6148204;23;20021;-53
2022/08/21 12:26:23;;;;;;;8.13;2.47;;;;;;;;;;6147760;23;20032;-49
2022/08/21 12:29:23;;;;;;;11.40;2.55;;;;;;;;;;6147878;23;20032;-52
2022/08/21 12:32:09;;;;;;;6.95;2.40;;;;;;;;;;6145507;23;20411;-50
2022/08/21 12:35:09;;;;;;;8.82;2.78;;;;;;;;;;6147909;23;20032;-59
2022/08/21 12:38:06;;;;;;;8.82;2.72;;;;;;;;;;6162967;23;20021;-59
2022/08/21 12:41:04;;;;;;;3.95;1.98;;;;;;;;;;6176117;23;20075;-59
2022/08/21 12:43:57;;;;;;;8.38;2.63;;;;;;;;;;6178670;23;20068;-59
2022/08/21 12:46:56;;;;;;;8.52;2.78;;;;;;;;;;6177162;23;20055;-59
2022/08/21 12:49:48;;;;;;;9.02;2.40;;;;;;;;;;6176848;23;20056;-59
2022/08/21 12:52:49;;;;;;;7.07;2.08;;;;;;;;;;6175606;23;20049;-59
2022/08/21 12:55:47;;;;;;;7.32;2.50;;;;;;;;;;6176232;23;20071;-55
2022/08/21 12:58:44;;;;;;;9.90;2.60;;;;;;;;;;6177449;23;20028;-55
2022/08/21 13:01:36;;;;;;;7.80;2.50;;;;;;;;;;6174896;23;20029;-53
2022/08/21 13:04:11;;;;;;;6.07;2.10;;;;;;;;;;6176157;23;20347;-51
2022/08/21 13:06:41;;;;;;;7.00;2.63;;;;;;;;;;6177866;23;20529;-51
2022/08/21 13:09:11;;;;;;;7.47;2.42;;;;;;;;;;6178003;23;20083;-47
2022/08/21 13:11:50;;;;;;;6.97;2.50;;;;;;;;;;6177966;23;20028;-49
2022/08/21 13:14:25;;;;;;;6.90;2.08;;;;;;;;;;6177665;23;20021;-57
2022/08/21 13:17:00;;;;;;;8.43;2.38;;;;;;;;;;6178098;23;20584;-58
2022/08/21 13:19:29;;;;;;;9.90;2.60;;;;;;;;;;6178253;23;20032;-56
2022/08/21 13:21:56;;;;;;;11.00;2.53;;;;;;;;;;6176830;23;20359;-57
2022/08/21 13:25:01;;;;;;;8.55;2.22;;;;;;;;;;6176523;23;20021;-58
2022/08/21 13:28:05;;;;;;;9.27;2.30;;;;;;;;;;6178647;23;20367;-59
2022/08/21 13:31:01;;;;;;;6.43;2.20;;;;;;;;;;6172954;23;20091;-57
2022/08/21 13:33:46;;;;;;;8.55;2.60;;;;;;;;;;6172428;23;20025;-58
2022/08/21 13:36:54;;;;;;;6.88;2.30;;;;;;;;;;6176241;23;20025;-57
2022/08/21 13:39:53;;;;;;;8.93;2.30;;;;;;;;;;6177476;23;20017;-59
2022/08/21 13:42:48;;;;;;;7.30;2.83;;;;;;;;;;6176387;23;20021;-57
2022/08/21 13:45:34;;;;;;;8.32;2.70;;;;;;;;;;6177656;23;20032;-59
2022/08/21 13:48:31;;;;;;;6.55;2.60;;;;;;;;;;6176496;23;20096;-52
2022/08/21 13:51:13;;;;;;;8.90;2.83;;;;;;;;;;6175939;23;20099;-60
2022/08/21 13:53:51;;;;;;;7.90;2.30;;;;;;;;;;6177642;23;20021;-57
2022/08/21 13:56:43;;;;;;;7.15;2.22;;;;;;;;;;6175651;23;20040;-57
2022/08/21 13:59:38;;;;;;;6.63;2.28;;;;;;;;;;6177044;23;20047;-57
2022/08/21 14:02:25;;;;;;;6.75;2.25;;;;;;;;;;6178327;23;20029;-55
2022/08/21 14:05:27;;;;;;;5.82;2.28;;;;;;;;;;6176928;23;20048;-56
2022/08/21 14:08:19;;;;;;;9.55;2.50;;;;;;;;;;6178561;23;20068;-48
2022/08/21 14:11:13;;;;;;;6.65;2.13;;;;;;;;;;6178446;23;20469;-49
2022/08/21 14:14:03;;;;;;;8.55;2.33;;;;;;;;;;6179249;23;20028;-51
2022/08/21 14:16:58;;;;;;;6.20;2.15;;;;;;;;;;6175759;23;20020;-52
2022/08/21 14:19:54;;;;;;;9.40;2.45;;;;;;;;;;6176648;23;20017;-55
2022/08/21 14:22:49;;;;;;;7.82;2.25;;;;;;;;;;6178498;23;20021;-53
2022/08/21 14:25:43;;;;;;;11.25;2.80;;;;;;;;;;6178880;23;20052;-47
2022/08/21 14:28:41;;;;;;;8.18;2.17;;;;;;;;;;6178925;23;20025;-60
2022/08/21 14:31:36;;;;;;;;;;;;;;;;;;6178607;23;20522;-57
2022/08/21 14:34:31;;;;;;;9.45;2.40;;;;;;;;;;6178292;23;19920;-58
2022/08/21 14:37:26;;;;;;;7.55;2.65;;;;;;;;;;6178179;23;20493;-57
2022/08/21 14:40:28;;;;;;;7.43;2.35;;;;;;;;;;6179505;23;20025;-57
2022/08/21 14:43:15;;;;;;;8.77;2.30;;;;;;;;;;6178488;23;20076;-58
2022/08/21 14:46:09;;;;;;;9.07;2.40;;;;;;;;;;6177099;23;20029;-52
2022/08/21 14:48:56;;;;;;;10.55;2.40;;;;;;;;;;6175592;23;20053;-49
2022/08/21 14:51:56;;;;;;;10.23;2.08;;;;;;;;;;6178196;23;20025;-49
2022/08/21 14:54:37;;;;;;;7.68;2.08;;;;;;;;;;6171208;23;20025;-51
2022/08/21 14:57:31;;;;;;;9.02;2.40;;;;;;;;;;6176327;23;20025;-49
2022/08/21 15:00:21;;;;;;;8.88;2.30;;;;;;;;;;6174835;23;20406;-48
2022/08/21 15:03:14;;;;;;;5.93;2.22;;;;;;;;;;6173416;23;20025;-49
2022/08/21 15:06:01;;;;;;;4.43;1.98;;;;;;;;;;6173264;23;20546;-51
2022/08/21 15:08:56;;;;;;;6.68;2.22;;;;;;;;;;6178698;23;20055;-65
2022/08/21 15:11:43;;;;;;;8.38;2.42;;;;;;;;;;6178186;23;20055;-66
2022/08/21 15:14:42;;;;;;;5.88;2.05;;;;;;;;;;6172870;23;20029;-66
2022/08/21 15:17:29;;;;;;;9.98;2.10;;;;;;;;;;6173956;23;20376;-66
2022/08/21 15:20:23;;;;;;;6.40;2.20;;;;;;;;;;6171178;23;20029;-64
2022/08/21 15:23:10;;;;;;;8.60;2.47;;;;;;;;;;6175307;23;20032;-57
2022/08/21 15:26:09;;;;;;;;;;;;;;;;;;6178505;23;20056;-56
2022/08/21 15:28:57;;;;;;;8.35;2.58;;;;;;;;;;6177365;23;19994;-52
2022/08/21 15:32:00;;;;;;;10.27;2.40;;;;;;;;;;6174211;23;20076;-54
2022/08/21 15:34:48;;;;;;;9.38;2.50;;;;;;;;;;6172959;23;20017;-55
2022/08/21 15:37:48;;;;;;;10.52;2.55;;;;;;;;;;6172855;23;20224;-51
2022/08/21 15:40:38;;;;;;;9.57;2.25;;;;;;;;;;6173113;23;20055;-51